Oriibu — JD2579 — position and weather

sailwx.info

Track history (hours):
 
Tides and Currents Weather Stations Pressure Air Temp Water Temp Dewpoint Dewpoint Depression Visibility Wind Speed Wind Dir Waves Ship Positions

Oriibu

Last reported at 2016-May-02 14:26 UTC. Time now 2016-May-03 22:01 UTC.
Position N 35°09' E 139°44'.

Length 75 m; draft 4.2 m.

MMSI: 431000426.

Date/timePositionNaut miles runAvg speedWind from/ knotsBaromVisibWave heightAir tempDewpointWater temp
2016-May-02 14:26N 35°09' E 139°44'910.6
2016-May-02 13:33N 35°18' E 139°44'1010.0
2016-May-02 12:33N 35°28' E 139°48'1211.6
2016-May-02 11:33N 35°36' E 139°57'4 4.4
2016-May-02 10:33N 35°41' E 139°57'0 0.0
2016-May-02 09:27N 35°41' E 139°57'0 0.0
2016-May-02 08:24N 35°41' E 139°57'0 0.0
2016-May-02 07:33N 35°41' E 139°57'0 0.0
2016-May-02 06:33N 35°41' E 139°57'0 0.0
2016-May-02 05:33N 35°41' E 139°57'0 0.0
2016-May-02 04:33N 35°41' E 139°57'0 0.0
2016-May-02 03:33N 35°41' E 139°57'0 0.0
2016-May-02 02:30N 35°41' E 139°57'0 0.0
2016-May-02 01:33N 35°41' E 139°57'0 0.0
2016-May-02 00:33N 35°41' E 139°57'0 0.0
2016-May-01 23:30N 35°41' E 139°57'2 2.5
2016-May-01 22:33N 35°39' E 139°58'2 1.7
2016-May-01 21:23N 35°37' E 139°58'0 0.0
2016-May-01 20:29N 35°37' E 139°58'0 0.1
2016-May-01 19:29N 35°37' E 139°58'0 0.0
2016-May-01 18:29N 35°37' E 139°58'0 0.0
2016-May-01 17:23N 35°37' E 139°58'0 0.0
2016-May-01 16:23N 35°37' E 139°58'0 0.0
2016-May-01 15:29N 35°37' E 139°58'0 0.0
2016-May-01 14:29N 35°37' E 139°58'0 0.0
2016-May-01 13:23N 35°37' E 139°58'0 0.0
2016-May-01 12:29N 35°37' E 139°58'0 0.0
2016-May-01 11:29N 35°37' E 139°58'0 0.0
2016-May-01 10:29N 35°37' E 139°58'0 0.0
2016-May-01 09:32N 35°37' E 139°58'0 0.0
2016-May-01 08:29N 35°37' E 139°58'0 0.0
2016-May-01 07:29N 35°37' E 139°58'0 0.0
2016-May-01 06:17N 35°37' E 139°58'0 0.0
2016-May-01 05:23N 35°37' E 139°58'0 0.0
2016-May-01 04:29N 35°37' E 139°58'0 0.0
2016-May-01 03:29N 35°37' E 139°58'0 0.0
2016-May-01 02:29N 35°37' E 139°58'0 0.0
2016-May-01 01:23N 35°37' E 139°58'1 0.8
2016-May-01 00:33N 35°36' E 139°57'1111.3
2016-Apr-30 23:33N 35°27' E 139°50'1010.4
2016-Apr-30 22:33N 35°17' E 139°45'1110.7
2016-Apr-30 21:32N 35°06' E 139°45'  
2016-Apr-28 09:25N 34°36' E 134°55'7 8.3
2016-Apr-28 08:33N 34°36' E 135°04'1111.3
2016-Apr-28 07:34N 34°37' E 135°17'6 2.0
2016-Apr-28 04:30N 34°38' E 135°25'0 0.0
2016-Apr-28 03:30N 34°38' E 135°25'0 0.0
2016-Apr-28 02:18N 34°38' E 135°25'0 0.0
2016-Apr-28 01:12N 34°38' E 135°25'0 0.0
2016-Apr-28 00:24N 34°38' E 135°25'0 0.0
2016-Apr-27 23:30N 34°38' E 135°25'3 2.4
2016-Apr-27 22:24N 34°37' E 135°22'0 0.0
2016-Apr-27 21:24N 34°37' E 135°22'0 0.0
2016-Apr-27 20:30N 34°37' E 135°22'0 0.0
2016-Apr-27 19:30N 34°37' E 135°22'0 0.0
2016-Apr-27 18:24N 34°37' E 135°22'0 0.0
2016-Apr-27 17:18N 34°37' E 135°22'0 0.0
2016-Apr-27 16:18N 34°37' E 135°22'0 0.0
2016-Apr-27 15:18N 34°37' E 135°22'0 0.0
2016-Apr-27 14:30N 34°37' E 135°22'0 0.0
2016-Apr-27 13:12N 34°37' E 135°22'0 0.0
2016-Apr-27 12:30N 34°37' E 135°22'0 0.0
2016-Apr-27 11:30N 34°37' E 135°22'8 8.9
2016-Apr-27 10:33N 34°31' E 135°15'207 9.0
2016-Apr-26 11:28N 34°55' E 139°25'2412.4
2016-Apr-26 09:31N 35°12' E 139°46'1111.6
2016-Apr-26 08:34N 35°23' E 139°42'1111.1
2016-Apr-26 07:33N 35°29' E 139°54'2 1.9
2016-Apr-26 06:33N 35°29' E 139°56'0 0.0
2016-Apr-26 05:33N 35°29' E 139°56'0 0.1
2016-Apr-26 04:30N 35°29' E 139°56'0 0.0
2016-Apr-26 03:33N 35°29' E 139°56'8 8.5
2016-Apr-26 02:34N 35°30' E 139°46'1 0.5
2016-Apr-26 01:27N 35°31' E 139°45'0 0.0
2016-Apr-26 00:33N 35°31' E 139°45'0 0.0
2016-Apr-25 23:33N 35°31' E 139°45'0 0.0
2016-Apr-25 22:33N 35°31' E 139°45'0 0.0
2016-Apr-25 21:33N 35°31' E 139°45'0 0.0
2016-Apr-25 20:33N 35°31' E 139°45'0 0.0
2016-Apr-25 19:33N 35°31' E 139°45'0 0.0
2016-Apr-25 18:33N 35°31' E 139°45'0 0.0
2016-Apr-25 17:33N 35°31' E 139°45'0 0.0
2016-Apr-25 16:33N 35°31' E 139°45'0 0.0
2016-Apr-25 15:33N 35°31' E 139°45'0 0.0
2016-Apr-25 14:33N 35°31' E 139°45'0 0.0
2016-Apr-25 13:33N 35°31' E 139°45'0 0.0
2016-Apr-25 12:33N 35°31' E 139°45'0 0.0
2016-Apr-25 11:33N 35°31' E 139°45'0 0.0
2016-Apr-25 10:33N 35°31' E 139°45'0 0.0
2016-Apr-25 09:33N 35°31' E 139°45'0 0.0
2016-Apr-25 08:33N 35°31' E 139°45'0 0.0
2016-Apr-25 07:33N 35°31' E 139°45'0 0.0
2016-Apr-25 06:33N 35°31' E 139°45'0 0.0
2016-Apr-25 05:30N 35°31' E 139°45'0 0.0
2016-Apr-25 04:33N 35°31' E 139°45'0 0.0
2016-Apr-25 03:33N 35°31' E 139°45'0 0.0
2016-Apr-25 02:33N 35°31' E 139°45'0 0.0
2016-Apr-25 01:33N 35°31' E 139°45'0 0.0
2016-Apr-25 00:33N 35°31' E 139°45'0 0.0
2016-Apr-24 23:33N 35°31' E 139°45'0 0.0
2016-Apr-24 22:33N 35°31' E 139°45'3 3.0
2016-Apr-24 21:33N 35°29' E 139°48'0 0.0
2016-Apr-24 20:32N 35°29' E 139°48'0 0.0
2016-Apr-24 19:33N 35°29' E 139°48'0 0.0
2016-Apr-24 18:32N 35°29' E 139°48'0 0.0
2016-Apr-24 17:32N 35°29' E 139°48'0 0.0
2016-Apr-24 16:33N 35°29' E 139°48'0 0.0
2016-Apr-24 15:32N 35°29' E 139°48'0 0.0
2016-Apr-24 14:32N 35°29' E 139°48'0 0.0
2016-Apr-24 13:32N 35°29' E 139°48'0 0.0
2016-Apr-24 12:32N 35°29' E 139°48'0 0.0
2016-Apr-24 11:32N 35°29' E 139°48'0 0.0
2016-Apr-24 10:32N 35°29' E 139°48'0 0.0
2016-Apr-24 09:32N 35°29' E 139°48'0 0.0
2016-Apr-24 08:32N 35°29' E 139°48'0 0.1
2016-Apr-24 07:32N 35°29' E 139°48'0 0.1
2016-Apr-24 06:32N 35°29' E 139°48'0 0.0
2016-Apr-24 05:32N 35°29' E 139°48'0 0.0
2016-Apr-24 04:32N 35°29' E 139°48'0 0.0
2016-Apr-24 03:32N 35°29' E 139°48'0 0.0
2016-Apr-24 02:29N 35°29' E 139°48'2 2.4
2016-Apr-24 01:33N 35°27' E 139°47'10 9.9
2016-Apr-24 00:33N 35°17' E 139°45'10 9.7
2016-Apr-23 23:33N 35°07' E 139°46'  
Track history (hours):
 
Tides and Currents Weather Stations Pressure Air Temp Water Temp Dewpoint Dewpoint Depression Visibility Wind Speed Wind Dir Waves Ship Positions

Oriibu

Last reported at 2016-May-02 14:26 UTC. Time now 2016-May-03 22:01 UTC.
Position N 35°09' E 139°44'.

Length 75 m; draft 4.2 m.

MMSI: 431000426.

Date/timePositionNaut miles runAvg speedWind from/ knotsBaromVisibWave heightAir tempDewpointWater temp
2016-May-02 14:26N 35°09' E 139°44'910.6
2016-May-02 13:33N 35°18' E 139°44'1010.0
2016-May-02 12:33N 35°28' E 139°48'1211.6
2016-May-02 11:33N 35°36' E 139°57'4 4.4
2016-May-02 10:33N 35°41' E 139°57'0 0.0
2016-May-02 09:27N 35°41' E 139°57'0 0.0
2016-May-02 08:24N 35°41' E 139°57'0 0.0
2016-May-02 07:33N 35°41' E 139°57'0 0.0
2016-May-02 06:33N 35°41' E 139°57'0 0.0
2016-May-02 05:33N 35°41' E 139°57'0 0.0
2016-May-02 04:33N 35°41' E 139°57'0 0.0
2016-May-02 03:33N 35°41' E 139°57'0 0.0
2016-May-02 02:30N 35°41' E 139°57'0 0.0
2016-May-02 01:33N 35°41' E 139°57'0 0.0
2016-May-02 00:33N 35°41' E 139°57'0 0.0
2016-May-01 23:30N 35°41' E 139°57'2 2.5
2016-May-01 22:33N 35°39' E 139°58'2 1.7
2016-May-01 21:23N 35°37' E 139°58'0 0.0
2016-May-01 20:29N 35°37' E 139°58'0 0.1
2016-May-01 19:29N 35°37' E 139°58'0 0.0
2016-May-01 18:29N 35°37' E 139°58'0 0.0
2016-May-01 17:23N 35°37' E 139°58'0 0.0
2016-May-01 16:23N 35°37' E 139°58'0 0.0
2016-May-01 15:29N 35°37' E 139°58'0 0.0
2016-May-01 14:29N 35°37' E 139°58'0 0.0
2016-May-01 13:23N 35°37' E 139°58'0 0.0
2016-May-01 12:29N 35°37' E 139°58'0 0.0
2016-May-01 11:29N 35°37' E 139°58'0 0.0
2016-May-01 10:29N 35°37' E 139°58'0 0.0
2016-May-01 09:32N 35°37' E 139°58'0 0.0
2016-May-01 08:29N 35°37' E 139°58'0 0.0
2016-May-01 07:29N 35°37' E 139°58'0 0.0
2016-May-01 06:17N 35°37' E 139°58'0 0.0
2016-May-01 05:23N 35°37' E 139°58'0 0.0
2016-May-01 04:29N 35°37' E 139°58'0 0.0
2016-May-01 03:29N 35°37' E 139°58'0 0.0
2016-May-01 02:29N 35°37' E 139°58'0 0.0
2016-May-01 01:23N 35°37' E 139°58'1 0.8
2016-May-01 00:33N 35°36' E 139°57'1111.3
2016-Apr-30 23:33N 35°27' E 139°50'1010.4
2016-Apr-30 22:33N 35°17' E 139°45'1110.7
2016-Apr-30 21:32N 35°06' E 139°45'  
2016-Apr-28 09:25N 34°36' E 134°55'7 8.3
2016-Apr-28 08:33N 34°36' E 135°04'1111.3
2016-Apr-28 07:34N 34°37' E 135°17'6 2.0
2016-Apr-28 04:30N 34°38' E 135°25'0 0.0
2016-Apr-28 03:30N 34°38' E 135°25'0 0.0
2016-Apr-28 02:18N 34°38' E 135°25'0 0.0
2016-Apr-28 01:12N 34°38' E 135°25'0 0.0
2016-Apr-28 00:24N 34°38' E 135°25'0 0.0
2016-Apr-27 23:30N 34°38' E 135°25'3 2.4
2016-Apr-27 22:24N 34°37' E 135°22'0 0.0
2016-Apr-27 21:24N 34°37' E 135°22'0 0.0
2016-Apr-27 20:30N 34°37' E 135°22'0 0.0
2016-Apr-27 19:30N 34°37' E 135°22'0 0.0
2016-Apr-27 18:24N 34°37' E 135°22'0 0.0
2016-Apr-27 17:18N 34°37' E 135°22'0 0.0
2016-Apr-27 16:18N 34°37' E 135°22'0 0.0
2016-Apr-27 15:18N 34°37' E 135°22'0 0.0
2016-Apr-27 14:30N 34°37' E 135°22'0 0.0
2016-Apr-27 13:12N 34°37' E 135°22'0 0.0
2016-Apr-27 12:30N 34°37' E 135°22'0 0.0
2016-Apr-27 11:30N 34°37' E 135°22'8 8.9
2016-Apr-27 10:33N 34°31' E 135°15'207 9.0
2016-Apr-26 11:28N 34°55' E 139°25'2412.4
2016-Apr-26 09:31N 35°12' E 139°46'1111.6
2016-Apr-26 08:34N 35°23' E 139°42'1111.1
2016-Apr-26 07:33N 35°29' E 139°54'2 1.9
2016-Apr-26 06:33N 35°29' E 139°56'0 0.0
2016-Apr-26 05:33N 35°29' E 139°56'0 0.1
2016-Apr-26 04:30N 35°29' E 139°56'0 0.0
2016-Apr-26 03:33N 35°29' E 139°56'8 8.5
2016-Apr-26 02:34N 35°30' E 139°46'1 0.5
2016-Apr-26 01:27N 35°31' E 139°45'0 0.0
2016-Apr-26 00:33N 35°31' E 139°45'0 0.0
2016-Apr-25 23:33N 35°31' E 139°45'0 0.0
2016-Apr-25 22:33N 35°31' E 139°45'0 0.0
2016-Apr-25 21:33N 35°31' E 139°45'0 0.0
2016-Apr-25 20:33N 35°31' E 139°45'0 0.0
2016-Apr-25 19:33N 35°31' E 139°45'0 0.0
2016-Apr-25 18:33N 35°31' E 139°45'0 0.0
2016-Apr-25 17:33N 35°31' E 139°45'0 0.0
2016-Apr-25 16:33N 35°31' E 139°45'0 0.0
2016-Apr-25 15:33N 35°31' E 139°45'0 0.0
2016-Apr-25 14:33N 35°31' E 139°45'0 0.0
2016-Apr-25 13:33N 35°31' E 139°45'0 0.0
2016-Apr-25 12:33N 35°31' E 139°45'0 0.0
2016-Apr-25 11:33N 35°31' E 139°45'0 0.0
2016-Apr-25 10:33N 35°31' E 139°45'0 0.0
2016-Apr-25 09:33N 35°31' E 139°45'0 0.0
2016-Apr-25 08:33N 35°31' E 139°45'0 0.0
2016-Apr-25 07:33N 35°31' E 139°45'0 0.0
2016-Apr-25 06:33N 35°31' E 139°45'0 0.0
2016-Apr-25 05:30N 35°31' E 139°45'0 0.0
2016-Apr-25 04:33N 35°31' E 139°45'0 0.0
2016-Apr-25 03:33N 35°31' E 139°45'0 0.0
2016-Apr-25 02:33N 35°31' E 139°45'0 0.0
2016-Apr-25 01:33N 35°31' E 139°45'0 0.0
2016-Apr-25 00:33N 35°31' E 139°45'0 0.0
2016-Apr-24 23:33N 35°31' E 139°45'0 0.0
2016-Apr-24 22:33N 35°31' E 139°45'3 3.0
2016-Apr-24 21:33N 35°29' E 139°48'0 0.0
2016-Apr-24 20:32N 35°29' E 139°48'0 0.0
2016-Apr-24 19:33N 35°29' E 139°48'0 0.0
2016-Apr-24 18:32N 35°29' E 139°48'0 0.0
2016-Apr-24 17:32N 35°29' E 139°48'0 0.0
2016-Apr-24 16:33N 35°29' E 139°48'0 0.0
2016-Apr-24 15:32N 35°29' E 139°48'0 0.0
2016-Apr-24 14:32N 35°29' E 139°48'0 0.0
2016-Apr-24 13:32N 35°29' E 139°48'0 0.0
2016-Apr-24 12:32N 35°29' E 139°48'0 0.0
2016-Apr-24 11:32N 35°29' E 139°48'0 0.0
2016-Apr-24 10:32N 35°29' E 139°48'0 0.0
2016-Apr-24 09:32N 35°29' E 139°48'0 0.0
2016-Apr-24 08:32N 35°29' E 139°48'0 0.1
2016-Apr-24 07:32N 35°29' E 139°48'0 0.1
2016-Apr-24 06:32N 35°29' E 139°48'0 0.0
2016-Apr-24 05:32N 35°29' E 139°48'0 0.0
2016-Apr-24 04:32N 35°29' E 139°48'0 0.0
2016-Apr-24 03:32N 35°29' E 139°48'0 0.0
2016-Apr-24 02:29N 35°29' E 139°48'2 2.4
2016-Apr-24 01:33N 35°27' E 139°47'10 9.9
2016-Apr-24 00:33N 35°17' E 139°45'10 9.7
2016-Apr-23 23:33N 35°07' E 139°46'  

Dump ship's entire track history